createdAt,value
2022-10-22T00:00:36.847Z,36.40
2022-10-22T00:03:04.136Z,34.40
2022-10-22T00:05:31.049Z,32.60
2022-10-22T00:07:58.152Z,34.80
2022-10-22T00:10:25.118Z,35.90
2022-10-22T00:12:52.229Z,34.90
2022-10-22T00:15:19.116Z,32.80
2022-10-22T00:17:47.133Z,33.40
2022-10-22T00:20:14.367Z,41.20
2022-10-22T00:22:41.301Z,34.50
2022-10-22T00:25:08.787Z,30.60
2022-10-22T00:27:35.698Z,31.20
2022-10-22T00:30:02.570Z,31.90
2022-10-22T00:32:29.502Z,39.80
2022-10-22T00:34:56.463Z,30.40
2022-10-22T00:37:23.423Z,34.80
2022-10-22T00:39:50.445Z,31.50
2022-10-22T00:42:19.929Z,36.80
2022-10-22T00:45:05.357Z,31.10
2022-10-22T00:47:39.887Z,27.00
2022-10-22T00:50:09.850Z,29.90
2022-10-22T00:52:36.814Z,31.50
2022-10-22T00:55:04.704Z,32.10
2022-10-22T00:57:31.628Z,26.50
2022-10-22T00:59:58.604Z,25.20
2022-10-22T01:02:25.509Z,32.40
2022-10-22T01:04:52.646Z,32.40
2022-10-22T01:07:22.199Z,29.10
2022-10-22T01:10:17.000Z,36.50
2022-10-22T01:12:45.971Z,34.20
2022-10-22T01:15:17.053Z,30.90
2022-10-22T01:18:05.562Z,26.30
2022-10-22T01:20:35.585Z,27.70
2022-10-22T01:23:24.276Z,29.60
2022-10-22T01:25:59.263Z,29.00
2022-10-22T01:28:54.057Z,26.60
2022-10-22T01:31:20.949Z,26.20
2022-10-22T01:33:47.806Z,28.60
2022-10-22T01:36:15.290Z,29.90
2022-10-22T01:38:42.306Z,27.50
2022-10-22T01:41:09.181Z,32.40
2022-10-22T01:43:36.031Z,28.60
2022-10-22T01:46:04.615Z,30.10
2022-10-22T01:48:34.528Z,27.60
2022-10-22T01:51:08.034Z,31.20
2022-10-22T01:56:31.290Z,24.80
2022-10-22T01:58:58.294Z,31.10
2022-10-22T02:01:45.884Z,32.50
2022-10-22T02:04:44.761Z,30.80
2022-10-22T02:07:12.939Z,28.80
2022-10-22T02:09:39.941Z,25.90
2022-10-22T02:12:07.334Z,27.70
2022-10-22T02:14:34.576Z,23.70
2022-10-22T02:17:01.558Z,27.50
2022-10-22T02:19:35.903Z,26.20
2022-10-22T02:22:03.053Z,26.60
2022-10-22T02:24:29.965Z,29.60
2022-10-22T02:27:08.978Z,24.50
2022-10-22T02:29:46.416Z,28.50
2022-10-22T02:32:16.378Z,28.90
2022-10-22T02:34:43.508Z,26.50
2022-10-22T02:37:10.426Z,29.20
2022-10-22T02:39:37.288Z,30.00
2022-10-22T02:42:04.332Z,23.90
2022-10-22T02:44:31.385Z,27.00
2022-10-22T02:46:58.347Z,30.10
2022-10-22T02:49:25.462Z,29.70
2022-10-22T02:51:52.416Z,31.50
2022-10-22T02:54:19.288Z,35.40
2022-10-22T02:56:46.228Z,34.80
2022-10-22T02:59:13.141Z,33.30
2022-10-22T03:01:40.037Z,37.10
2022-10-22T03:04:07.087Z,29.80
2022-10-22T03:06:34.057Z,31.30
2022-10-22T03:09:01.036Z,31.20
2022-10-22T03:11:28.245Z,35.10
2022-10-22T03:13:55.109Z,35.80
2022-10-22T03:16:22.061Z,36.50
2022-10-22T03:18:48.987Z,37.50
2022-10-22T03:21:50.352Z,36.30
2022-10-22T03:24:22.923Z,39.10
2022-10-22T03:26:50.939Z,41.20
2022-10-22T03:29:17.909Z,38.60
2022-10-22T03:31:44.790Z,39.30
2022-10-22T03:34:13.521Z,40.50
2022-10-22T03:36:41.000Z,35.40
2022-10-22T03:39:07.982Z,32.30
2022-10-22T03:41:35.018Z,40.10
2022-10-22T03:44:02.122Z,34.60
2022-10-22T03:46:29.084Z,28.70
2022-10-22T03:48:56.368Z,34.90
2022-10-22T03:51:23.364Z,36.80
2022-10-22T03:53:50.265Z,32.10
2022-10-22T03:56:17.104Z,34.90
2022-10-22T03:58:43.999Z,32.90
2022-10-22T04:01:12.505Z,30.70
2022-10-22T04:03:39.753Z,31.40
2022-10-22T04:06:08.794Z,36.30
2022-10-22T04:08:36.118Z,38.10
2022-10-22T04:11:03.072Z,36.00
2022-10-22T04:13:30.058Z,40.10
2022-10-22T04:15:57.068Z,33.50
2022-10-22T04:18:23.955Z,37.60
2022-10-22T04:20:51.843Z,36.00
2022-10-22T04:23:18.764Z,34.00
2022-10-22T04:25:45.643Z,35.60
2022-10-22T04:28:12.532Z,34.90
2022-10-22T04:30:39.503Z,35.60
2022-10-22T04:33:06.354Z,34.40
2022-10-22T04:35:33.272Z,35.90
2022-10-22T04:38:00.689Z,32.60
2022-10-22T04:40:27.597Z,35.70
2022-10-22T04:42:54.426Z,33.60
2022-10-22T04:45:21.381Z,33.80
2022-10-22T04:47:48.277Z,33.60
2022-10-22T04:50:15.272Z,32.50
2022-10-22T04:52:42.370Z,33.80
2022-10-22T04:55:09.488Z,30.40
2022-10-22T04:57:36.369Z,40.20
2022-10-22T05:00:03.884Z,40.50
2022-10-22T05:02:30.734Z,42.30
2022-10-22T05:04:57.584Z,36.90
2022-10-22T05:07:24.505Z,40.40
2022-10-22T05:09:51.575Z,41.80
2022-10-22T05:12:18.516Z,56.00
2022-10-22T05:14:45.423Z,48.40
2022-10-22T05:17:12.536Z,58.70
2022-10-22T05:19:39.402Z,62.60
2022-10-22T05:22:06.360Z,54.80
2022-10-22T05:24:33.941Z,58.10
2022-10-22T05:27:00.812Z,63.00
2022-10-22T05:29:27.874Z,51.80
2022-10-22T05:31:54.919Z,50.70
2022-10-22T05:34:21.852Z,52.50
2022-10-22T05:36:48.784Z,49.60
2022-10-22T05:39:18.103Z,52.20
2022-10-22T05:41:45.130Z,43.70
2022-10-22T05:44:12.385Z,47.40
2022-10-22T05:46:39.329Z,40.30
2022-10-22T05:49:06.969Z,38.60
2022-10-22T05:51:34.807Z,46.60
2022-10-22T05:54:03.622Z,46.20
2022-10-22T05:56:32.098Z,31.80
2022-10-22T05:58:59.561Z,33.30
2022-10-22T06:01:28.498Z,29.60
2022-10-22T06:03:59.673Z,28.20
2022-10-22T06:06:35.697Z,33.00
2022-10-22T06:09:11.342Z,31.20
2022-10-22T06:11:38.318Z,29.80
2022-10-22T06:14:05.310Z,30.80
2022-10-22T06:16:32.411Z,29.80
2022-10-22T06:18:59.639Z,26.70
2022-10-22T06:21:26.538Z,27.60
2022-10-22T06:23:58.456Z,27.60
2022-10-22T06:26:25.424Z,27.70
2022-10-22T06:28:52.344Z,26.50
2022-10-22T06:31:19.325Z,24.80
2022-10-22T06:33:46.180Z,25.90
2022-10-22T06:36:17.543Z,30.10
2022-10-22T06:38:44.433Z,30.60
2022-10-22T06:41:13.537Z,27.20
2022-10-22T06:43:41.247Z,27.60
2022-10-22T06:46:14.829Z,28.10
2022-10-22T06:48:48.098Z,28.30
2022-10-22T06:51:15.032Z,24.20
2022-10-22T06:53:42.029Z,26.50
2022-10-22T06:56:13.923Z,41.90
2022-10-22T06:58:40.945Z,32.50
2022-10-22T07:01:09.844Z,41.30
2022-10-22T07:03:37.737Z,49.10
2022-10-22T07:06:06.521Z,104.30
2022-10-22T07:08:33.773Z,36.40
2022-10-22T07:11:11.069Z,30.50
2022-10-22T07:13:38.267Z,88.10
2022-10-22T07:16:06.357Z,48.50
2022-10-22T07:18:35.960Z,29.80
2022-10-22T07:21:03.160Z,27.60
2022-10-22T07:23:30.048Z,38.80
2022-10-22T07:28:30.063Z,32.90
2022-10-22T07:30:56.915Z,25.00
2022-10-22T07:33:23.789Z,25.00
2022-10-22T07:35:50.749Z,32.50
2022-10-22T07:38:17.641Z,32.80
2022-10-22T07:40:44.626Z,28.90
2022-10-22T07:43:11.822Z,24.80
2022-10-22T07:45:38.688Z,23.30
2022-10-22T07:48:06.015Z,22.30
2022-10-22T07:50:32.961Z,20.30
2022-10-22T07:53:00.006Z,25.90
2022-10-22T07:55:26.912Z,41.70
2022-10-22T07:57:53.862Z,32.00
2022-10-22T08:00:23.223Z,111.40
2022-10-22T08:02:52.276Z,39.80
2022-10-22T08:05:19.377Z,24.60
2022-10-22T08:07:46.468Z,21.30
2022-10-22T08:10:13.824Z,40.10
2022-10-22T08:12:40.929Z,26.60
2022-10-22T08:15:08.789Z,28.20
2022-10-22T08:17:36.071Z,25.30
2022-10-22T08:20:03.611Z,25.50
2022-10-22T08:22:30.613Z,27.90
2022-10-22T08:24:57.575Z,33.00
2022-10-22T08:27:24.515Z,26.20
2022-10-22T08:29:51.441Z,57.80
2022-10-22T08:32:18.544Z,34.80
2022-10-22T08:34:45.569Z,29.70
2022-10-22T08:37:14.481Z,38.70
2022-10-22T08:39:41.683Z,37.40
2022-10-22T08:42:36.585Z,33.40
2022-10-22T08:45:25.042Z,43.80
2022-10-22T08:48:01.624Z,31.90
2022-10-22T08:50:38.561Z,48.30
2022-10-22T08:53:08.284Z,30.00
2022-10-22T08:55:37.411Z,36.30
2022-10-22T08:58:17.630Z,42.70
2022-10-22T09:01:09.608Z,30.70
2022-10-22T09:03:57.706Z,39.50
2022-10-22T09:06:25.911Z,32.70
2022-10-22T09:08:53.386Z,29.80
2022-10-22T09:11:32.334Z,38.60
2022-10-22T09:13:59.554Z,26.90
2022-10-22T09:16:41.854Z,30.30
2022-10-22T09:19:19.768Z,43.80
2022-10-22T09:21:55.696Z,44.90
2022-10-22T09:24:44.877Z,26.20
2022-10-22T09:27:16.766Z,27.80
2022-10-22T09:29:43.934Z,38.00
2022-10-22T09:32:10.928Z,33.50
2022-10-22T09:34:38.069Z,33.10
2022-10-22T09:37:49.854Z,27.40
2022-10-22T09:40:17.197Z,24.70
2022-10-22T09:42:46.254Z,26.90
2022-10-22T09:45:21.761Z,30.50
2022-10-22T09:48:04.248Z,25.20
2022-10-22T09:51:29.682Z,19.60
2022-10-22T09:54:28.007Z,21.90
2022-10-22T09:57:22.440Z,25.20
2022-10-22T10:03:33.993Z,24.10
2022-10-22T10:06:06.036Z,23.50
2022-10-22T10:08:36.617Z,21.40
2022-10-22T10:11:08.435Z,23.20
2022-10-22T10:14:01.185Z,23.10
2022-10-22T10:16:41.244Z,22.50
2022-10-22T10:19:31.020Z,24.70
2022-10-22T10:22:16.393Z,21.60
2022-10-22T10:25:09.399Z,25.40
2022-10-22T10:28:18.072Z,24.10
2022-10-22T10:30:56.999Z,20.10
2022-10-22T10:33:34.491Z,25.70
2022-10-22T10:36:04.813Z,29.00
2022-10-22T10:38:32.078Z,29.00
2022-10-22T10:41:16.111Z,29.70
2022-10-22T10:43:49.409Z,35.60
2022-10-22T10:46:25.875Z,35.20
2022-10-22T10:48:57.095Z,126.60
2022-10-22T10:51:46.702Z,52.20
2022-10-22T10:54:48.899Z,27.10
2022-10-22T10:57:32.193Z,49.10
2022-10-22T11:00:07.783Z,71.00
2022-10-22T11:03:06.019Z,22.40
2022-10-22T11:05:42.797Z,15.50
2022-10-22T11:08:20.409Z,16.10
2022-10-22T11:11:09.223Z,26.10
2022-10-22T11:13:41.459Z,23.70
2022-10-22T11:16:30.688Z,25.00
2022-10-22T11:19:04.531Z,19.30
2022-10-22T11:21:36.655Z,23.30
2022-10-22T11:24:23.571Z,23.60
2022-10-22T11:26:53.896Z,21.50
2022-10-22T11:29:25.628Z,22.80
2022-10-22T11:31:55.053Z,27.00
2022-10-22T11:34:37.588Z,22.70
2022-10-22T11:37:04.611Z,19.60
2022-10-22T11:39:39.440Z,22.30
2022-10-22T11:42:10.156Z,27.20
2022-10-22T11:44:59.043Z,30.30
2022-10-22T11:47:27.819Z,28.70
2022-10-22T11:50:37.587Z,33.40
2022-10-22T11:53:07.942Z,32.60
2022-10-22T11:55:51.670Z,35.20
2022-10-22T11:58:39.772Z,35.30
2022-10-22T12:01:10.131Z,36.20
2022-10-22T12:04:00.082Z,32.70
2022-10-22T12:06:27.847Z,34.70
2022-10-22T12:08:55.073Z,45.60
2022-10-22T12:11:23.929Z,38.90
2022-10-22T12:14:02.408Z,48.80
2022-10-22T12:16:50.948Z,40.90
2022-10-22T12:19:22.715Z,38.30
2022-10-22T12:21:58.773Z,34.80
2022-10-22T12:24:26.328Z,41.80
2022-10-22T12:26:53.377Z,37.20
2022-10-22T12:29:23.770Z,42.00
2022-10-22T12:31:50.853Z,52.00
2022-10-22T12:34:19.640Z,44.50
2022-10-22T12:36:47.709Z,45.10
2022-10-22T12:39:16.967Z,44.80
2022-10-22T12:41:44.259Z,56.20
2022-10-22T12:44:16.428Z,51.50
2022-10-22T12:46:44.843Z,50.10
2022-10-22T12:49:20.555Z,50.40
2022-10-22T12:51:48.115Z,51.00
2022-10-22T12:54:28.537Z,52.50
2022-10-22T12:56:56.137Z,48.20
2022-10-22T12:59:37.223Z,55.80
2022-10-22T13:02:27.163Z,52.20
2022-10-22T13:05:12.748Z,51.30
2022-10-22T13:07:41.506Z,48.10
2022-10-22T13:10:19.058Z,52.10
2022-10-22T13:12:50.322Z,50.70
2022-10-22T13:15:34.965Z,49.30
2022-10-22T13:18:22.599Z,54.20
2022-10-22T13:21:03.395Z,54.20
2022-10-22T13:23:32.156Z,54.70
2022-10-22T13:26:15.191Z,49.10
2022-10-22T13:31:17.354Z,61.30
2022-10-22T13:33:46.068Z,58.40
2022-10-22T13:36:16.262Z,60.60
2022-10-22T13:38:43.522Z,62.30
2022-10-22T13:41:25.124Z,66.00
2022-10-22T13:43:52.457Z,64.30
2022-10-22T13:46:19.537Z,51.30
2022-10-22T13:48:47.275Z,53.90
2022-10-22T13:51:16.367Z,52.50
2022-10-22T13:53:44.001Z,60.50
2022-10-22T13:56:18.906Z,59.10
2022-10-22T13:58:46.622Z,65.20
2022-10-22T14:01:20.662Z,54.20
2022-10-22T14:03:49.111Z,62.90
2022-10-22T14:06:17.285Z,63.40
2022-10-22T14:08:45.932Z,73.20
2022-10-22T14:11:13.126Z,76.00
2022-10-22T14:13:40.279Z,83.20
2022-10-22T14:16:08.033Z,79.20
2022-10-22T14:18:35.080Z,73.50
2022-10-22T14:21:07.776Z,74.30
2022-10-22T14:23:36.405Z,70.10
2022-10-22T14:26:03.701Z,72.70
2022-10-22T14:28:34.122Z,73.00
2022-10-22T14:31:10.909Z,77.50
2022-10-22T14:33:37.948Z,73.10
2022-10-22T14:36:05.364Z,87.50
2022-10-22T14:38:32.553Z,86.90
2022-10-22T14:40:59.910Z,81.10
2022-10-22T14:43:28.390Z,96.20
2022-10-22T14:45:55.538Z,97.50
2022-10-22T14:48:22.509Z,97.50
2022-10-22T14:50:49.531Z,98.30
2022-10-22T14:53:17.112Z,127.70
2022-10-22T14:55:44.854Z,122.50
2022-10-22T14:58:12.642Z,110.00
2022-10-22T15:00:43.132Z,124.10
2022-10-22T15:03:10.918Z,123.80
2022-10-22T15:05:44.592Z,126.30
2022-10-22T15:08:12.479Z,130.50
2022-10-22T15:10:40.360Z,146.70
2022-10-22T15:13:07.564Z,138.70
2022-10-22T15:15:39.679Z,144.30
2022-10-22T15:18:07.530Z,146.00
2022-10-22T15:20:34.573Z,144.60
2022-10-22T15:23:01.621Z,139.50
2022-10-22T15:25:28.975Z,139.10
2022-10-22T15:28:00.780Z,139.00
2022-10-22T15:30:34.744Z,143.50
2022-10-22T15:33:02.201Z,153.20
2022-10-22T15:35:29.162Z,143.10
2022-10-22T15:37:56.192Z,159.90
2022-10-22T15:40:23.158Z,162.00
2022-10-22T15:42:50.393Z,156.40
2022-10-22T15:45:17.488Z,184.90
2022-10-22T15:47:48.362Z,170.50
2022-10-22T15:50:15.728Z,191.40
2022-10-22T15:52:42.775Z,204.30
2022-10-22T15:55:10.821Z,203.00
2022-10-22T15:57:39.022Z,201.70
2022-10-22T16:00:07.645Z,203.10
2022-10-22T16:02:39.370Z,208.30
2022-10-22T16:05:07.222Z,192.60
2022-10-22T16:07:34.276Z,185.70
2022-10-22T16:10:01.980Z,179.80
2022-10-22T16:12:28.996Z,185.50
2022-10-22T16:14:56.043Z,198.70
2022-10-22T16:17:23.599Z,187.60
2022-10-22T16:19:50.876Z,181.80
2022-10-22T16:22:17.894Z,199.60
2022-10-22T16:24:45.144Z,199.10
2022-10-22T16:27:12.192Z,199.20
2022-10-22T16:29:39.919Z,186.20
2022-10-22T16:32:07.715Z,191.60
2022-10-22T16:34:34.763Z,228.30
2022-10-22T16:37:02.732Z,187.60
2022-10-22T16:39:29.716Z,179.90
2022-10-22T16:41:56.728Z,187.40
2022-10-22T16:44:23.959Z,188.80
2022-10-22T16:46:51.023Z,183.00
2022-10-22T16:49:18.071Z,184.00
2022-10-22T16:51:45.118Z,183.80
2022-10-22T16:54:12.667Z,169.90
2022-10-22T16:56:39.983Z,194.50
2022-10-22T16:59:07.000Z,178.20
2022-10-22T17:01:37.878Z,188.00
2022-10-22T17:04:07.640Z,197.20
2022-10-22T17:06:34.702Z,207.30
2022-10-22T17:09:01.778Z,201.80
2022-10-22T17:11:35.199Z,267.00
2022-10-22T17:14:06.262Z,377.90
2022-10-22T17:16:33.303Z,445.20
2022-10-22T17:19:00.567Z,450.30
2022-10-22T17:21:27.679Z,419.70
2022-10-22T17:23:56.804Z,404.90
2022-10-22T17:26:24.155Z,362.40
2022-10-22T17:28:51.201Z,322.90
2022-10-22T17:31:23.172Z,323.80
2022-10-22T17:33:51.340Z,300.90
2022-10-22T17:36:18.795Z,307.70
2022-10-22T17:38:48.367Z,320.30
2022-10-22T17:41:20.125Z,327.80
2022-10-22T17:43:55.524Z,319.40
2022-10-22T17:46:24.759Z,302.00
2022-10-22T17:48:55.942Z,306.20
2022-10-22T17:51:23.311Z,283.10
2022-10-22T17:53:50.811Z,309.40
2022-10-22T17:56:20.272Z,285.50
2022-10-22T17:58:47.310Z,279.20
2022-10-22T18:01:25.622Z,272.60
2022-10-22T18:03:53.601Z,275.00
2022-10-22T18:06:20.727Z,255.90
2022-10-22T18:08:47.804Z,257.40
2022-10-22T18:11:17.524Z,253.10
2022-10-22T18:13:44.672Z,242.60
2022-10-22T18:16:11.734Z,247.10
2022-10-22T18:18:38.705Z,249.10
2022-10-22T18:21:05.829Z,215.60
2022-10-22T18:23:33.513Z,215.10
2022-10-22T18:26:00.976Z,203.10
2022-10-22T18:28:27.926Z,194.80
2022-10-22T18:30:54.892Z,193.90
2022-10-22T18:33:24.149Z,193.10
2022-10-22T18:35:52.711Z,193.50
2022-10-22T18:38:23.094Z,184.60
2022-10-22T18:40:50.225Z,170.70
2022-10-22T18:43:18.392Z,179.00
2022-10-22T18:45:46.329Z,174.50
2022-10-22T18:48:13.791Z,162.40
2022-10-22T18:50:40.744Z,150.60
2022-10-22T18:53:07.755Z,165.30
2022-10-22T18:55:35.315Z,163.10
2022-10-22T18:58:02.225Z,149.20
2022-10-22T19:00:29.771Z,150.50
2022-10-22T19:02:56.715Z,161.80
2022-10-22T19:05:23.593Z,159.70
2022-10-22T19:07:50.584Z,173.60
2022-10-22T19:10:17.794Z,166.00
2022-10-22T19:12:44.635Z,165.00
2022-10-22T19:15:11.850Z,155.20
2022-10-22T19:17:39.051Z,158.80
2022-10-22T19:20:06.648Z,150.60
2022-10-22T19:22:33.562Z,143.90
2022-10-22T19:25:00.506Z,137.40
2022-10-22T19:27:31.796Z,129.70
2022-10-22T19:29:58.868Z,139.40
2022-10-22T19:32:28.813Z,135.10
2022-10-22T19:34:57.785Z,127.40
2022-10-22T19:37:24.731Z,118.20
2022-10-22T19:39:51.615Z,124.90
2022-10-22T19:42:18.564Z,116.20
2022-10-22T19:44:45.510Z,120.40
2022-10-22T19:47:12.449Z,125.30
2022-10-22T19:49:39.350Z,124.70
2022-10-22T19:52:06.349Z,117.10
2022-10-22T19:54:33.424Z,121.50
2022-10-22T19:57:00.408Z,119.70
2022-10-22T20:02:06.602Z,118.20
2022-10-22T20:04:45.620Z,113.60
2022-10-22T20:07:15.001Z,103.40
2022-10-22T20:09:42.690Z,106.50
2022-10-22T20:12:19.202Z,100.10
2022-10-22T20:14:46.680Z,96.40
2022-10-22T20:17:13.625Z,91.90
2022-10-22T20:19:40.627Z,101.40
2022-10-22T20:22:07.818Z,100.60
2022-10-22T20:24:34.761Z,104.10
2022-10-22T20:27:01.823Z,98.80
2022-10-22T20:29:28.851Z,100.60
2022-10-22T20:31:55.902Z,98.00
2022-10-22T20:34:22.806Z,89.80
2022-10-22T20:36:49.906Z,87.10
2022-10-22T20:39:17.039Z,93.10
2022-10-22T20:41:44.193Z,90.10
2022-10-22T20:44:13.391Z,90.20
2022-10-22T20:46:40.434Z,90.40
2022-10-22T20:49:13.300Z,91.20
2022-10-22T20:51:40.467Z,89.50
2022-10-22T20:54:07.738Z,90.50
2022-10-22T20:56:35.996Z,86.60
2022-10-22T20:59:08.168Z,86.40
2022-10-22T21:01:38.281Z,84.20
2022-10-22T21:04:05.534Z,79.30
2022-10-22T21:06:32.786Z,78.90
2022-10-22T21:08:59.937Z,78.60
2022-10-22T21:11:27.087Z,66.00
2022-10-22T21:13:54.134Z,77.30
2022-10-22T21:16:21.384Z,66.30
2022-10-22T21:18:48.637Z,73.70
2022-10-22T21:21:17.734Z,48.90
2022-10-22T21:23:44.983Z,52.20
2022-10-22T21:26:12.137Z,48.80
2022-10-22T21:28:39.310Z,44.90
2022-10-22T21:31:08.683Z,41.80
2022-10-22T21:33:39.318Z,46.30
2022-10-22T21:36:07.090Z,43.00
2022-10-22T21:38:34.432Z,36.10
2022-10-22T21:41:05.576Z,39.40
2022-10-22T21:43:32.554Z,41.50
2022-10-22T21:46:07.964Z,39.50
2022-10-22T21:48:36.754Z,44.10
2022-10-22T21:51:08.123Z,42.90
2022-10-22T21:55:14.405Z,43.20
2022-10-22T21:57:41.846Z,43.60
2022-10-22T22:00:10.107Z,47.30
2022-10-22T22:02:46.165Z,46.90
2022-10-22T22:05:13.116Z,40.80
2022-10-22T22:07:40.771Z,42.60
2022-10-22T22:10:08.535Z,42.90
2022-10-22T22:12:35.480Z,51.40
2022-10-22T22:15:02.540Z,43.30
2022-10-22T22:17:29.502Z,45.40
2022-10-22T22:19:56.930Z,38.50
2022-10-22T22:22:24.430Z,44.70
2022-10-22T22:24:51.432Z,43.80
2022-10-22T22:29:45.608Z,40.60
2022-10-22T22:32:16.070Z,42.80
2022-10-22T22:34:43.206Z,38.30
2022-10-22T22:37:10.254Z,40.30
2022-10-22T22:39:37.302Z,40.80
2022-10-22T22:42:04.655Z,54.30
2022-10-22T22:44:31.707Z,50.70
2022-10-22T22:46:59.161Z,47.50
2022-10-22T22:49:26.209Z,48.00
2022-10-22T22:51:53.253Z,47.00
2022-10-22T22:54:20.220Z,47.90
2022-10-22T22:56:49.704Z,48.70
2022-10-22T22:59:16.853Z,52.10
2022-10-22T23:01:45.570Z,46.30
2022-10-22T23:04:16.577Z,47.60
2022-10-22T23:06:43.543Z,47.90
2022-10-22T23:09:14.730Z,41.50
2022-10-22T23:11:42.224Z,38.00
2022-10-22T23:14:11.225Z,37.80
2022-10-22T23:16:40.826Z,38.30
2022-10-22T23:19:08.078Z,33.80
2022-10-22T23:21:37.862Z,33.30
2022-10-22T23:24:07.468Z,31.70
2022-10-22T23:26:36.702Z,33.50
2022-10-22T23:29:05.293Z,35.80
2022-10-22T23:31:32.334Z,36.80
2022-10-22T23:33:59.374Z,34.60
2022-10-22T23:36:26.529Z,32.00
2022-10-22T23:38:54.797Z,37.40
2022-10-22T23:41:22.186Z,37.60
2022-10-22T23:43:50.335Z,39.30
2022-10-22T23:46:17.473Z,40.10
2022-10-22T23:48:49.243Z,36.70
2022-10-22T23:51:17.001Z,38.60
2022-10-22T23:53:44.991Z,35.10
2022-10-22T23:56:16.102Z,38.40
2022-10-22T23:58:43.412Z,37.20
